Date,TemperatureHighF,TemperatureAvgF,TemperatureLowF,DewpointHighF,DewpointAvgF,DewpointLowF,HumidityHigh,HumidityAvg,HumidityLow,PressureMaxIn,PressureMinIn,WindSpeedMaxMPH,WindSpeedAvgMPH,GustSpeedMaxMPH,PrecipitationSumIn
2013-1-1,44.3,41.5,37.1,41.1,37.3,32.0,90,85,81,30.21,29.97,13,5,13,0.01
2013-1-2,39.8,36.1,32.0,32.0,29.9,25.8,82,78,72,30.27,30.19,9,3,9,0.00
2013-1-3,56.0,40.3,28.8,34.7,29.1,23.5,85,66,40,30.39,30.25,14,3,14,0.00
2013-1-4,51.7,44.2,37.8,35.4,31.9,28.8,75,62,46,30.45,30.29,6,2,6,0.00
2013-1-5,56.5,45.1,39.1,41.7,36.7,31.4,86,73,54,30.30,30.15,10,3,10,0.02
2013-1-6,63.0,45.0,31.9,35.4,29.6,24.1,84,58,30,30.32,30.22,12,2,12,0.01
2013-1-7,59.9,44.4,30.6,38.4,30.0,20.5,68,58,43,30.27,30.05,14,3,14,0.00
2013-1-8,49.0,46.6,45.4,46.6,40.7,32.7,92,80,61,30.05,29.90,13,5,13,0.85
2013-1-9,55.6,51.9,49.0,53.3,49.6,46.4,93,92,91,30.07,29.91,21,8,21,1.60
2013-1-10,61.7,56.2,49.1,56.7,49.9,43.5,93,80,60,29.96,29.85,20,8,20,0.03
2013-1-11,71.3,59.5,48.4,59.2,49.3,43.1,83,71,48,29.91,29.73,16,8,16,0.00
2013-1-12,72.4,56.8,36.7,67.6,52.6,32.3,92,86,79,29.86,29.59,14,7,14,0.32
2013-1-13,48.1,37.4,30.4,32.7,27.3,21.2,84,68,48,30.20,29.86,13,7,13,0.00
2013-1-14,46.8,35.6,27.4,29.7,24.4,20.4,76,64,49,30.27,30.14,11,5,11,0.00
2013-1-15,35.8,33.1,29.5,31.3,27.3,22.2,88,79,65,30.15,30.08,8,4,8,0.07
2013-1-16,52.7,39.2,27.9,29.1,25.0,21.6,78,59,38,30.22,30.10,9,3,9,0.06
2013-1-17,64.1,47.1,34.0,39.1,30.8,23.2,69,55,36,30.42,30.17,10,3,10,0.00
2013-1-18,63.5,47.8,33.3,38.5,32.7,24.7,76,57,39,30.44,30.22,13,5,13,0.00
2013-1-19,65.5,54.7,40.5,46.2,41.9,34.1,81,63,47,30.21,30.09,17,5,17,0.00
2013-1-20,71.3,56.2,41.0,51.9,43.6,35.7,84,65,40,30.16,30.01,14,3,14,0.00
2013-1-21,65.5,50.2,38.0,42.9,36.3,28.4,82,60,43,30.22,30.06,12,4,12,0.00
2013-1-22,65.2,49.8,36.2,47.3,37.6,25.8,75,63,51,30.25,30.12,10,4,10,0.00
2013-1-23,74.0,60.3,50.4,55.6,51.0,42.9,86,72,52,30.22,30.07,19,6,19,0.00
2013-1-24,76.7,63.0,54.7,61.7,56.2,50.6,92,80,57,30.13,29.98,14,6,14,0.00
2013-1-25,60.7,51.9,46.4,57.2,46.0,39.8,91,80,71,30.13,29.96,8,4,10,0.00
2013-1-26,49.7,47.9,46.1,46.4,44.4,40.2,92,88,73,30.15,30.04,12,5,13,0.01
2013-1-27,75.6,61.0,47.0,62.7,55.3,44.8,94,83,59,30.04,29.87,22,8,22,0.00
2013-1-28,76.7,70.2,64.8,66.3,62.8,59.7,89,78,65,29.95,29.80,20,10,20,0.00
2013-1-29,75.8,66.4,53.8,65.9,59.7,44.8,88,79,55,29.80,29.40,25,12,25,0.28
2013-1-30,54.4,47.6,38.5,44.8,31.5,25.4,77,54,39,30.07,29.62,24,8,24,0.00
2013-1-31,68.6,50.6,36.4,31.9,26.9,23.1,61,43,21,30.25,30.02,20,6,20,0.00
2013-2-1,64.4,47.0,30.2,37.4,29.4,19.1,64,52,36,30.32,30.10,13,6,14,0.00
2013-2-2,72.4,57.3,47.5,48.2,39.9,32.4,75,55,30,30.24,30.07,14,5,14,0.00
2013-2-3,76.1,56.3,38.9,43.7,34.2,28.7,71,46,25,30.24,29.93,10,2,10,0.00
2013-2-4,68.4,58.8,52.4,56.4,46.5,32.6,87,65,41,29.93,29.74,20,7,20,0.09
2013-2-5,65.0,58.0,55.1,60.7,54.7,52.4,92,89,85,29.95,29.81,7,4,7,0.01
2013-2-6,70.6,59.8,54.7,62.1,55.9,52.1,93,87,73,29.96,29.83,16,7,16,0.00
2013-2-7,75.1,62.4,55.3,61.4,54.6,44.1,91,77,42,30.00,29.73,20,8,20,0.00
2013-2-8,69.1,54.8,42.3,47.8,38.2,33.6,80,57,30,30.17,30.00,15,5,15,0.00
2013-2-9,50.0,47.2,45.4,40.9,39.1,36.1,80,74,59,30.08,30.02,16,8,16,0.00
2013-2-10,68.8,60.6,49.0,61.8,43.3,31.5,92,58,26,29.95,29.60,24,6,32,0.64
2013-2-11,55.6,50.0,45.5,39.1,35.7,32.1,75,58,45,30.08,29.93,15,6,15,0.00
2013-2-12,49.9,46.6,44.1,45.9,42.9,37.5,91,87,75,29.98,29.77,15,5,15,0.54
2013-2-13,62.3,46.8,39.6,44.7,37.9,34.8,87,73,47,30.09,29.93,17,5,17,0.01
2013-2-14,71.5,53.6,38.5,45.0,37.8,33.2,84,59,32,30.04,29.93,12,3,12,0.00
2013-2-15,52.0,46.1,35.6,37.7,30.7,22.8,76,56,36,30.30,30.02,17,5,17,0.00
2013-2-16,61.6,45.3,33.5,36.2,28.7,22.1,70,54,33,30.33,30.10,10,3,10,0.00
2013-2-17,69.7,52.9,40.9,37.6,32.3,27.5,67,48,26,30.10,29.87,24,9,24,0.00
2013-2-18,78.5,60.8,48.6,57.4,45.3,33.5,78,59,32,30.04,29.68,24,12,28,0.00
2013-2-19,65.2,52.0,39.6,33.4,29.6,25.3,63,44,25,30.25,30.04,14,5,14,0.00
2013-2-20,51.5,43.7,39.2,39.8,35.2,31.7,86,73,47,30.14,29.75,22,10,22,0.11
2013-2-21,68.2,52.0,40.5,51.9,40.2,33.5,91,66,37,29.86,29.55,21,8,24,0.13
2013-2-22,51.8,42.1,33.1,36.6,28.8,23.3,78,60,44,30.07,29.84,11,4,11,0.00
2013-2-23,62.1,45.0,30.6,34.5,28.8,22.9,75,55,34,30.01,29.86,12,3,12,0.00
2013-2-24,70.7,53.5,38.9,44.9,37.3,27.5,77,56,33,29.87,29.57,21,7,21,0.00
2013-2-25,63.4,52.3,39.2,53.3,39.1,30.1,82,62,33,29.58,29.37,26,10,26,0.01
2013-2-26,60.8,47.7,40.3,38.1,33.8,29.0,78,60,40,29.84,29.55,27,10,27,0.00
2013-2-27,60.3,45.6,35.6,37.2,28.3,23.2,79,54,29,30.13,29.82,20,6,20,0.00
2013-2-28,61.7,46.5,34.2,34.4,28.0,23.1,76,51,30,30.20,30.07,17,6,17,0.00
2013-3-1,57.4,44.3,32.0,35.1,29.0,22.1,72,56,41,30.21,30.11,17,4,17,0.00
2013-3-2,57.4,42.9,29.9,26.9,24.2,21.2,72,50,29,30.34,30.16,15,4,15,0.00
2013-3-3,69.1,52.8,33.7,43.7,30.9,20.9,69,45,29,30.16,29.75,23,9,23,0.00
2013-3-4,81.2,66.1,55.3,55.2,48.6,41.7,74,55,32,29.76,29.54,27,13,27,0.00
2013-3-5,65.9,52.2,42.3,53.2,28.8,21.2,65,43,24,30.28,29.69,24,8,24,0.00
2013-3-6,67.3,49.3,34.0,32.1,24.9,21.0,60,41,23,30.38,30.12,11,3,11,0.00
2013-3-7,71.1,56.3,41.6,35.4,28.9,21.0,53,36,21,30.18,30.03,20,6,20,0.00
2013-3-8,64.3,58.9,52.9,54.0,48.0,33.7,74,67,42,30.13,29.94,17,6,17,0.00
2013-3-9,69.7,64.8,59.6,62.1,57.9,52.8,84,78,73,29.94,29.60,22,11,22,0.03
2013-3-10,64.8,51.8,41.2,59.9,41.8,31.1,87,69,53,30.01,29.61,25,8,25,0.85
2013-3-11,59.9,46.6,35.1,33.6,30.1,25.7,79,55,30,30.04,29.93,15,4,15,0.00
2013-3-12,70.4,53.3,36.4,37.3,30.9,24.9,67,45,27,30.22,29.97,17,4,17,0.00
2013-3-13,73.3,56.9,41.4,40.8,35.0,30.5,68,46,28,30.37,30.22,12,4,12,0.00
2013-3-14,75.6,61.2,48.2,49.3,40.4,31.6,59,47,35,30.28,30.10,20,7,20,0.00
2013-3-15,78.8,66.4,54.9,55.4,48.7,43.8,81,56,32,30.10,29.82,24,11,24,0.00
2013-3-16,79.6,68.6,58.3,60.1,54.4,48.4,83,62,47,29.82,29.64,25,13,25,0.00
2013-3-17,75.8,67.9,59.8,61.2,56.8,49.2,84,68,50,29.72,29.60,23,8,23,0.00
2013-3-18,72.9,63.3,53.5,62.4,49.7,36.7,89,63,43,29.94,29.57,18,6,18,0.00
2013-3-19,69.1,57.0,45.0,44.1,38.4,34.4,76,52,36,30.06,29.89,19,7,20,0.24
2013-3-20,71.5,58.2,44.8,40.6,35.0,30.5,65,44,26,30.22,29.96,14,4,14,0.00
2013-3-21,67.5,58.1,49.9,53.1,39.4,29.6,70,50,43,29.96,29.53,23,9,23,0.00
2013-3-22,64.1,53.5,46.8,57.8,47.6,42.9,89,81,67,29.78,29.52,18,6,18,0.00
2013-3-23,56.7,49.8,45.9,50.4,46.0,43.4,91,87,78,29.81,29.59,19,5,19,0.04
2013-3-24,55.3,46.4,39.2,46.5,32.3,23.0,88,60,38,30.09,29.70,24,10,24,0.04
2013-3-25,57.2,43.5,30.4,28.0,22.2,17.3,70,45,25,30.31,30.09,19,6,19,0.00
2013-3-26,62.1,46.4,30.8,29.7,23.1,16.8,58,41,27,30.41,30.23,11,2,11,0.00
2013-3-27,69.3,53.9,38.2,38.4,30.8,21.2,55,42,28,30.25,30.03,21,8,21,0.00
2013-3-28,71.5,62.1,51.3,56.7,50.1,37.0,77,65,48,30.15,30.02,18,8,18,0.00
2013-3-29,74.3,66.8,59.4,58.8,56.3,53.6,83,70,57,30.12,29.97,17,8,17,0.00
2013-3-30,75.1,66.4,56.3,64.0,59.0,52.4,88,78,66,30.02,29.81,22,6,22,0.83
2013-3-31,76.5,67.2,58.3,62.1,57.9,50.6,89,73,53,29.91,29.74,18,5,18,0.63
2013-4-1,82.6,66.8,50.4,56.1,50.3,43.8,82,58,35,29.99,29.86,11,3,11,0.00
2013-4-2,72.4,64.7,50.4,61.6,54.2,39.7,79,69,59,29.96,29.83,22,7,22,0.03
2013-4-3,52.6,48.4,44.6,46.1,43.5,41.7,90,83,72,30.06,29.88,20,7,20,0.53
2013-4-4,51.3,46.2,42.5,43.7,40.8,38.1,87,81,72,30.10,30.01,14,4,14,0.05
2013-4-5,71.5,56.3,41.8,50.8,44.7,37.5,86,67,45,30.15,29.95,10,3,10,0.01
2013-4-6,75.2,64.1,54.5,58.0,51.9,46.4,79,66,48,29.96,29.77,24,9,24,0.00
2013-4-7,72.0,66.2,59.9,61.4,58.2,54.4,84,76,68,29.85,29.68,20,10,20,0.00
2013-4-8,76.0,70.1,62.8,64.2,61.0,56.7,83,73,62,29.70,29.60,24,11,24,0.00
2013-4-9,82.3,74.6,68.8,65.9,63.5,59.6,81,69,54,29.66,29.56,24,11,24,0.00
2013-4-10,74.3,50.6,40.9,67.7,45.5,35.1,89,83,66,29.88,29.62,21,9,21,0.50
2013-4-11,63.4,49.1,37.8,44.7,38.0,32.1,83,67,46,29.88,29.73,12,3,12,0.04
2013-4-12,78.7,60.1,41.6,55.1,44.9,35.6,84,60,35,29.91,29.77,11,2,11,0.13
2013-4-13,78.8,66.0,51.8,53.6,47.8,42.5,73,54,35,29.93,29.70,17,5,17,0.00
2013-4-14,80.3,68.5,56.7,65.2,57.1,46.4,81,67,54,29.70,29.49,20,8,20,0.00
2013-4-15,84.2,75.2,68.4,69.7,65.6,62.4,87,73,55,29.68,29.54,19,10,19,0.00
2013-4-16,87.8,77.6,70.0,69.2,66.3,64.4,83,69,49,29.83,29.67,18,8,18,0.00
2013-4-17,85.0,77.6,73.8,69.8,67.9,65.7,84,73,56,29.81,29.57,28,12,28,0.00
2013-4-18,74.7,56.6,45.2,69.6,48.0,34.3,87,74,54,30.04,29.48,26,11,26,1.87
2013-4-19,64.1,50.5,38.5,39.5,34.8,29.9,78,57,33,30.16,30.02,17,5,17,0.00
2013-4-20,71.1,58.1,42.8,43.8,37.6,33.8,72,49,30,30.11,29.93,19,6,19,0.00
2013-4-21,72.4,60.6,46.4,50.2,44.7,36.5,80,57,43,30.12,29.98,18,5,18,0.00
2013-4-22,76.0,64.9,51.7,60.3,52.5,43.0,76,64,56,30.03,29.77,17,7,17,0.00
2013-4-23,67.5,56.7,43.9,61.6,50.4,38.0,87,80,66,30.05,29.72,17,8,17,0.01
2013-4-24,64.1,51.3,40.3,43.3,38.7,34.1,85,64,41,30.20,30.05,16,6,16,0.00
2013-4-25,73.8,60.6,47.2,49.5,42.5,35.7,69,53,37,30.23,30.06,14,5,14,0.00
2013-4-26,76.0,65.8,56.2,66.3,55.7,43.4,83,70,52,30.08,29.89,17,6,17,0.01
2013-4-27,76.0,69.6,59.4,64.3,60.2,52.6,86,73,56,30.00,29.88,17,6,17,0.00
2013-4-28,81.4,66.3,51.7,66.9,57.6,47.1,89,74,58,29.95,29.77,12,3,12,0.02
2013-4-29,83.3,72.4,60.1,66.6,60.7,55.6,88,68,45,29.82,29.70,17,4,17,0.00
2013-4-30,82.4,71.2,61.0,65.4,60.6,54.5,86,70,52,29.74,29.65,14,5,14,0.00
2013-5-1,85.5,72.6,63.0,67.3,62.5,58.4,88,72,50,29.86,29.70,16,5,16,0.00
2013-5-2,66.4,53.8,42.8,60.8,47.8,36.1,87,80,73,30.19,29.84,20,8,20,0.11
2013-5-3,67.0,52.6,38.7,38.5,34.7,30.6,81,55,28,30.17,29.91,22,7,22,0.00
2013-5-4,73.3,57.6,41.6,43.1,36.0,30.3,78,48,23,29.91,29.77,25,6,25,0.00
2013-5-5,68.2,56.1,44.1,47.9,42.4,36.4,77,61,46,30.02,29.91,14,4,14,0.00
2013-5-6,81.0,64.6,48.2,57.8,50.4,40.7,84,62,41,29.99,29.86,11,2,11,0.00
2013-5-7,84.6,70.3,55.3,58.5,53.7,47.3,79,58,36,29.96,29.83,10,3,10,0.00
2013-5-8,83.5,72.3,59.8,61.5,56.8,51.3,77,59,43,29.90,29.76,19,6,19,0.00
2013-5-9,72.7,68.7,65.2,66.3,62.8,57.3,91,82,60,29.86,29.73,15,6,15,0.20
2013-5-10,82.3,71.2,64.1,67.8,63.1,58.6,91,77,55,29.91,29.75,10,2,10,0.00
2013-5-11,81.0,70.3,59.4,58.7,53.8,48.4,82,59,34,30.04,29.88,17,4,17,0.00
2013-5-12,79.4,67.0,54.7,52.3,43.7,37.5,70,46,25,30.14,30.02,17,4,17,0.00
2013-5-13,85.0,70.3,53.6,52.9,47.2,40.6,67,45,30,30.12,29.99,15,5,15,0.00
2013-5-14,85.7,74.4,61.9,62.4,55.6,49.3,80,54,32,30.04,29.88,17,8,17,0.00
2013-5-15,78.3,70.3,66.4,67.6,64.0,57.2,90,81,62,29.93,29.69,20,9,20,1.32
2013-5-16,79.6,69.8,62.6,70.7,64.6,59.4,90,84,72,29.78,29.64,20,6,20,0.89
2013-5-17,88.6,78.6,70.4,74.3,70.9,66.6,91,78,60,29.75,29.68,15,5,15,0.00
2013-5-18,90.2,80.4,71.3,74.3,70.6,66.0,85,73,57,29.80,29.66,20,8,20,0.00
2013-5-19,88.4,79.5,70.4,72.0,68.5,65.6,86,70,55,29.74,29.58,23,11,23,0.00
2013-5-20,87.5,79.3,72.9,72.6,69.6,67.4,84,73,58,29.72,29.56,22,10,22,0.00
2013-5-21,84.4,77.8,72.7,73.1,69.9,67.2,85,77,66,29.68,29.55,19,8,19,0.01
2013-5-23,87.3,83.1,76.3,72.5,71.4,70.1,81,68,59,29.93,29.84,13,4,13,0.00
2013-5-24,85.7,78.0,69.3,74.4,70.6,64.4,89,79,66,30.07,29.88,26,5,26,0.46
2013-5-25,84.4,74.0,67.9,71.8,66.9,64.0,90,79,61,30.04,29.92,14,5,14,0.01
2013-5-26,85.7,77.1,70.4,72.0,69.1,65.4,88,77,60,29.96,29.82,14,6,17,0.00
2013-5-27,86.2,78.3,70.9,69.8,68.0,66.2,87,71,56,29.87,29.68,18,8,19,0.00
2013-5-28,85.9,78.5,71.3,69.3,67.1,65.1,82,69,53,29.77,29.65,20,10,21,0.00
2013-5-29,82.1,77.0,72.9,70.7,68.7,67.0,83,76,67,29.72,29.60,24,10,24,0.00
2013-5-30,86.4,79.6,74.3,74.0,70.9,67.9,83,75,65,29.68,29.58,23,10,23,0.00
2013-5-31,88.4,79.6,76.5,75.3,71.9,70.7,83,78,61,29.71,29.63,20,10,20,0.00
2013-6-1,86.8,79.9,75.2,75.0,71.0,67.6,80,75,64,29.81,29.60,19,8,22,0.00
2013-6-2,85.0,75.7,66.2,67.8,58.7,53.0,78,58,34,29.92,29.77,13,4,13,0.00
2013-6-3,89.3,74.5,60.3,64.9,60.2,53.8,83,63,42,29.84,29.61,10,3,10,0.00
2013-6-4,89.8,78.6,68.4,70.8,66.4,60.9,81,67,51,29.79,29.51,15,6,15,0.00
2013-6-5,90.9,80.3,71.5,72.9,69.1,65.2,84,70,52,29.61,29.39,16,4,16,0.02
2013-6-6,78.5,73.7,68.0,69.8,66.7,62.9,88,79,66,29.50,29.34,20,4,20,0.81
2013-6-7,85.5,74.1,62.3,63.1,59.8,57.3,84,64,40,29.49,29.30,11,3,11,0.00
2013-6-8,85.5,78.4,74.0,64.1,61.7,60.6,66,57,48,29.87,29.81,9,4,9,0.00
2013-6-9,88.9,77.9,68.4,72.7,67.5,61.7,89,71,55,29.95,29.86,14,3,14,1.11
2013-6-10,94.9,82.0,70.4,72.7,68.6,64.8,88,66,41,29.96,29.90,13,4,13,0.00
2013-6-11,91.8,82.9,74.5,73.8,70.9,65.5,87,68,51,30.03,29.92,15,6,15,0.00
2013-6-12,92.7,83.3,75.6,73.8,71.5,69.2,88,69,50,30.06,29.92,19,6,19,0.00
2013-6-13,95.9,85.1,74.3,74.7,71.8,68.9,85,66,46,30.05,29.89,12,4,12,0.00
2013-6-14,97.2,86.7,75.2,76.7,72.4,68.3,80,64,46,29.98,29.87,8,2,8,0.00
2013-6-15,93.1,82.5,74.5,76.2,72.4,65.6,86,72,54,30.00,29.88,31,4,31,0.40
2013-6-16,93.2,83.3,74.9,75.8,71.9,68.9,88,70,48,30.00,29.86,12,4,12,0.00
2013-6-17,90.0,80.7,69.3,76.3,71.7,64.8,88,75,62,30.04,29.85,19,4,19,0.55
2013-6-18,82.3,77.0,72.0,72.6,69.8,67.2,86,79,69,29.99,29.86,10,3,10,0.01
2013-6-19,90.4,79.4,70.0,75.7,70.9,65.3,90,76,58,29.99,29.87,12,4,12,0.00
2013-6-20,93.4,83.8,75.6,72.8,70.8,67.9,86,67,47,30.04,29.91,15,6,15,0.00
2013-6-21,93.2,84.1,75.2,73.7,70.6,67.2,84,65,48,30.07,29.95,14,6,16,0.00
2013-6-22,92.5,83.6,74.9,73.4,70.0,67.5,83,65,48,30.04,29.88,17,6,17,0.00
2013-6-23,92.9,83.9,75.2,73.1,69.7,66.3,82,63,46,29.99,29.87,16,7,16,0.00
2013-6-24,93.4,84.4,75.6,73.2,69.9,66.3,82,63,45,30.02,29.88,14,6,16,0.00
2013-6-25,95.4,85.7,75.8,73.3,69.8,66.8,81,61,41,29.98,29.81,18,8,18,0.00
2013-6-26,96.7,86.1,76.3,72.8,69.8,64.5,81,60,43,29.96,29.83,18,7,18,0.00
2013-6-27,98.8,87.0,77.6,74.1,70.5,67.4,75,59,39,29.99,29.83,15,4,15,0.00
2013-6-28,102.1,88.1,77.6,74.3,68.8,65.1,70,54,36,29.92,29.78,14,4,14,0.00
2013-6-29,97.2,86.1,75.6,69.9,64.2,60.9,70,50,32,29.86,29.77,11,4,16,0.00
2013-6-30,90.7,81.0,72.0,63.4,59.8,55.6,71,50,33,29.91,29.78,14,4,14,0.00
2013-7-1,88.6,77.7,66.2,63.0,59.1,55.8,74,54,38,29.99,29.89,15,4,15,0.00
2013-7-2,90.7,78.0,64.6,61.7,56.1,50.1,72,49,28,30.05,29.96,13,3,13,0.00
2013-7-3,92.5,77.3,61.2,62.7,55.3,51.6,75,50,27,30.03,29.91,11,2,11,0.00
2013-7-4,94.1,80.7,70.9,64.9,61.2,57.0,69,53,34,29.99,29.88,20,5,20,0.00
2013-7-5,95.8,82.1,67.1,67.2,62.8,59.0,78,55,33,29.98,29.84,14,4,14,0.00
2013-7-6,95.8,83.7,71.3,69.5,63.6,58.8,75,53,34,29.94,29.83,14,5,14,0.00
2013-7-7,96.5,85.5,73.3,72.4,67.2,62.8,75,56,38,29.98,29.89,17,5,17,0.00
2013-7-8,97.2,84.9,75.2,72.8,69.8,67.0,82,62,42,30.06,29.96,13,5,13,0.00
2013-7-9,99.0,87.2,75.4,72.2,67.0,61.7,79,54,30,30.09,29.94,16,5,16,0.00
2013-7-10,101.2,90.0,80.8,72.8,69.4,64.5,72,53,35,30.03,29.86,14,5,14,0.00
2013-7-11,101.9,86.3,78.1,73.2,69.7,65.8,72,59,36,29.94,29.85,26,4,26,0.00
2013-7-12,100.1,86.2,72.5,73.0,69.8,67.0,89,61,38,29.95,29.85,15,4,15,0.00
2013-7-13,99.9,87.1,76.9,70.7,64.7,57.4,71,49,33,29.97,29.86,11,6,13,0.00
2013-7-14,78.5,73.3,68.8,68.5,64.8,58.6,86,75,51,29.99,29.86,9,3,9,0.06
2013-7-15,77.6,72.0,68.0,70.1,66.8,64.0,89,84,76,30.07,29.91,17,4,17,0.23
2013-7-16,91.3,78.2,70.9,73.9,69.7,66.7,88,77,53,30.18,30.04,19,5,19,0.40
2013-7-17,91.8,80.6,71.3,75.1,70.3,66.9,88,72,50,30.19,30.09,18,5,18,0.04
2013-7-18,96.1,84.3,72.0,74.3,69.7,66.3,85,64,43,30.14,29.96,8,2,12,0.00
2013-7-19,90.0,81.1,75.1,74.0,70.8,68.0,81,71,53,30.01,29.90,11,3,11,0.00
2013-7-20,96.5,81.5,72.2,74.6,70.1,67.2,87,70,43,29.95,29.82,14,3,14,0.00
2013-7-21,96.1,84.3,72.9,74.9,71.0,68.5,88,67,43,29.90,29.81,16,6,16,0.00
2013-7-22,97.7,86.6,76.9,74.2,71.6,67.1,85,63,39,29.94,29.82,18,7,18,0.00
2013-7-23,98.3,88.1,78.5,75.7,71.4,61.8,81,60,35,29.94,29.77,17,7,17,0.00
2013-7-24,95.6,82.8,74.2,74.1,69.4,64.9,81,65,46,30.01,29.81,19,6,19,0.05
2013-7-25,97.0,83.9,71.6,74.7,70.3,65.7,86,65,46,30.02,29.93,14,4,14,0.00
2013-7-26,95.0,83.4,76.9,75.2,71.4,69.0,82,68,47,29.99,29.80,19,5,19,0.46
2013-7-27,91.3,79.8,71.1,70.8,67.2,64.7,84,67,44,29.98,29.87,15,5,15,0.00
2013-7-28,92.7,80.7,68.4,70.9,67.6,62.1,85,66,48,29.96,29.84,14,4,14,0.00
2013-7-29,95.8,85.2,76.1,74.0,70.8,64.9,85,64,40,29.97,29.88,15,6,16,0.00
2013-7-30,98.5,87.8,78.5,72.5,68.2,60.4,76,54,39,30.05,29.91,17,6,20,0.00
2013-7-31,102.6,89.1,78.8,72.4,69.0,63.7,73,53,35,30.02,29.86,15,5,15,0.00
2013-8-1,102.6,89.8,78.5,73.6,70.9,68.6,77,56,36,29.96,29.85,17,4,17,0.00
2013-8-2,102.6,90.1,78.5,71.5,69.3,65.6,75,53,32,29.91,29.82,17,6,17,0.00
2013-8-3,101.3,89.4,78.8,71.6,69.1,65.3,70,53,33,29.97,29.88,14,6,14,0.00
2013-8-4,97.7,85.0,78.5,72.8,70.5,67.8,76,63,40,30.03,29.94,14,5,14,0.00
2013-8-5,102.6,90.9,81.4,71.7,67.1,62.4,69,48,30,29.96,29.80,14,5,14,0.00
2013-8-6,103.3,90.7,79.4,70.4,67.5,63.0,70,49,31,29.88,29.74,17,6,17,0.00
2013-8-7,104.8,91.3,78.8,71.7,67.9,64.5,74,49,29,29.86,29.72,16,7,16,0.00
2013-8-8,103.0,90.7,79.0,72.6,68.3,65.1,76,50,33,29.85,29.72,16,6,16,0.00
2013-8-9,104.8,91.3,79.6,69.5,63.2,54.8,65,43,21,29.91,29.79,14,5,14,0.00
2013-8-10,102.8,88.8,74.5,74.1,69.0,61.9,79,54,38,30.01,29.89,22,4,22,0.00
2013-8-11,104.6,87.8,75.6,73.4,69.8,66.7,81,58,31,30.03,29.89,19,4,19,0.00
2013-8-12,99.7,88.0,76.5,72.4,69.6,66.6,80,57,37,30.01,29.87,16,4,16,0.00
2013-8-13,100.6,85.5,77.0,73.7,70.5,67.1,85,63,38,29.96,29.84,19,6,19,0.15
2013-8-14,89.3,80.6,75.2,77.8,71.6,66.8,87,75,57,29.98,29.89,14,5,14,0.25
2013-8-15,90.9,78.8,68.4,67.1,63.2,58.7,78,60,43,30.03,29.91,13,5,13,0.00
2013-8-16,91.1,77.8,67.9,66.3,62.7,58.3,84,61,41,30.02,29.91,14,5,14,0.03
2013-8-17,92.7,77.5,63.5,61.7,59.2,56.7,80,56,34,30.04,29.92,16,5,16,0.00
2013-8-18,94.3,79.8,65.3,67.4,60.9,57.6,81,55,33,30.05,29.94,14,4,14,0.00
2013-8-19,98.1,83.6,70.7,67.4,61.5,56.7,78,51,29,30.03,29.89,21,5,21,0.00
2013-8-20,98.8,84.1,70.9,65.1,61.5,59.3,70,49,31,30.00,29.89,13,4,13,0.00
2013-8-21,96.1,84.4,72.2,68.1,64.3,60.0,75,53,36,30.04,29.93,14,4,14,0.00
2013-8-22,100.4,86.5,73.3,72.4,67.5,63.0,77,55,34,30.04,29.87,12,3,19,0.00
2013-8-23,102.4,87.9,75.6,72.9,68.1,63.2,75,54,30,29.98,29.85,13,4,13,0.00
2013-8-24,101.3,88.8,76.9,72.9,68.4,65.7,73,53,34,30.02,29.91,17,5,17,0.00
2013-8-25,99.7,87.4,75.2,71.4,66.7,63.9,74,52,34,30.09,29.99,18,5,18,0.00
2013-8-26,98.3,85.8,74.9,69.9,66.0,61.5,75,54,31,30.12,29.99,20,6,20,0.00
2013-8-27,94.5,83.1,73.8,71.3,67.8,65.0,83,62,39,30.08,29.96,13,4,13,0.00
2013-8-28,100.3,86.3,72.7,71.1,66.6,63.9,78,55,33,30.04,29.93,13,2,13,0.00
2013-8-29,104.8,89.3,74.7,69.8,65.3,63.0,71,47,30,30.02,29.89,10,2,10,0.00
2013-8-30,105.1,90.2,76.0,69.8,64.4,61.7,68,45,27,29.95,29.81,13,4,13,0.00
2013-8-31,105.5,90.5,77.8,71.9,66.4,61.8,76,48,29,29.86,29.73,14,3,14,0.00
2013-9-1,103.3,90.4,79.0,71.2,67.5,62.5,69,49,30,29.83,29.71,16,4,16,0.00
2013-9-2,94.9,84.1,76.3,73.6,70.8,67.5,84,65,47,29.95,29.79,9,3,9,0.10
2013-9-3,103.0,88.1,74.5,72.5,66.6,62.1,73,52,28,29.93,29.81,9,3,12,0.00
2013-9-4,102.6,87.7,74.3,72.7,67.5,63.0,80,53,30,29.99,29.88,17,5,17,0.00
2013-9-5,103.0,88.2,74.5,71.3,64.4,59.3,67,48,25,30.05,29.93,16,4,16,0.00
2013-9-6,101.9,87.1,74.5,71.3,64.7,60.1,66,49,32,30.03,29.89,13,3,13,0.00
2013-9-7,100.8,87.5,76.0,71.7,65.9,60.3,74,51,29,29.99,29.85,13,4,13,0.00
2013-9-8,98.5,85.0,70.0,71.9,64.3,59.3,78,53,31,29.94,29.82,13,3,13,0.00
2013-9-9,96.5,85.2,71.6,70.2,64.5,60.4,77,52,35,29.96,29.86,16,4,16,0.00
2013-9-10,95.6,83.4,72.2,71.7,64.2,55.7,80,55,29,30.04,29.92,16,5,16,0.00
2013-9-11,98.8,83.7,71.3,69.6,65.3,60.3,75,55,36,30.07,29.93,18,3,18,0.00
2013-9-12,99.4,85.8,72.7,70.9,67.3,63.8,80,56,34,30.01,29.86,12,2,12,0.00
2013-9-13,97.2,85.6,75.8,71.0,67.7,64.5,73,57,39,29.92,29.78,14,4,14,0.00
2013-9-14,94.5,83.0,72.7,67.1,61.3,56.6,65,49,36,29.93,29.83,18,7,18,0.00
2013-9-15,96.8,84.4,73.4,68.8,62.0,54.9,58,48,36,29.97,29.89,12,5,12,0.00
2013-9-16,99.0,85.9,73.8,72.1,64.7,61.3,71,51,31,30.04,29.90,14,3,14,0.00
2013-9-17,95.4,85.7,77.4,69.0,65.7,62.1,66,52,34,30.02,29.88,13,4,13,0.00
2013-9-18,96.8,86.2,76.7,70.3,65.4,60.6,70,52,35,29.96,29.82,14,5,15,0.00
2013-9-19,94.5,83.5,76.5,73.4,69.2,62.8,77,63,46,29.94,29.81,12,5,12,0.00
2013-9-20,76.1,72.9,69.5,70.3,68.6,64.4,89,86,81,29.88,29.77,16,5,16,1.46
2013-9-21,87.1,73.1,61.2,64.3,55.6,49.1,84,58,29,29.91,29.79,14,5,14,0.00
2013-9-22,88.2,72.0,57.4,57.8,52.9,50.0,77,54,31,29.89,29.75,12,4,14,0.00
2013-9-23,89.3,73.5,59.0,59.4,55.2,51.5,79,56,30,29.81,29.69,10,3,12,0.00
2013-9-24,98.5,80.1,65.0,68.0,57.9,49.1,77,51,23,29.86,29.76,14,3,14,0.00
2013-9-25,99.5,78.9,59.2,59.5,53.4,49.1,73,45,20,29.84,29.71,9,2,9,0.00
2013-9-26,95.9,80.5,66.1,60.8,56.4,50.6,60,45,30,29.83,29.73,14,4,16,0.00
2013-9-27,89.8,79.1,66.4,71.3,64.6,57.2,76,62,52,29.89,29.80,14,6,14,0.00
2013-9-28,87.7,76.9,66.2,74.3,68.4,61.6,86,75,63,29.96,29.82,22,6,22,1.12
2013-9-29,87.5,73.6,63.0,64.9,59.8,53.8,87,65,35,29.98,29.83,12,3,12,0.00
2013-9-30,90.0,75.3,63.0,65.1,58.7,52.8,78,59,33,29.86,29.75,11,2,11,0.00
2013-10-1,91.1,77.4,70.7,70.9,68.1,64.7,87,74,48,29.89,29.78,11,4,11,0.00
2013-10-2,89.8,79.2,72.4,71.7,69.0,66.6,86,72,51,29.93,29.81,14,5,14,0.00
2013-10-3,90.4,79.9,72.5,73.0,69.5,66.8,87,72,50,29.88,29.76,16,7,16,0.00
2013-10-4,89.3,80.1,73.6,70.8,68.7,65.9,86,70,49,29.86,29.78,16,7,16,0.00
2013-10-5,79.2,66.0,52.7,70.8,58.4,43.4,85,77,59,30.03,29.81,19,6,19,0.24
2013-10-6,77.4,62.6,50.6,50.0,45.1,37.6,86,58,27,30.04,29.94,16,4,16,0.00
2013-10-7,86.4,67.0,48.6,51.0,42.9,38.2,73,46,20,30.08,29.98,13,2,13,0.00
2013-10-8,84.2,66.6,50.4,55.2,48.9,41.0,75,55,34,30.05,29.93,9,3,11,0.00
2013-10-9,84.2,69.0,54.9,58.1,53.2,48.3,81,59,36,30.02,29.91,12,4,12,0.00
2013-10-10,85.9,71.6,59.4,61.3,56.4,52.9,81,61,39,30.00,29.83,16,4,16,0.00
2013-10-11,85.9,75.2,66.1,70.2,65.6,58.3,86,73,58,29.89,29.77,17,7,17,0.00
2013-10-12,92.2,77.1,70.0,75.8,69.1,61.9,87,77,46,30.00,29.82,20,5,20,0.02
2013-10-13,76.3,71.0,67.3,69.0,65.7,63.0,91,84,75,30.14,29.98,13,4,13,0.01
2013-10-14,71.8,69.7,67.9,68.2,66.0,64.1,90,88,83,30.07,29.87,12,5,12,0.46
2013-10-15,76.9,67.5,54.4,71.1,63.5,50.9,89,87,81,29.97,29.84,15,6,15,1.99
2013-10-16,59.2,55.4,52.7,54.6,51.8,49.4,90,88,84,30.02,29.91,12,4,12,0.25
2013-10-17,79.2,61.3,47.9,55.2,49.5,43.4,88,68,38,30.05,29.91,7,2,7,0.00
2013-10-18,71.5,61.5,52.2,56.0,51.3,45.9,86,70,52,29.99,29.83,14,3,14,0.00
2013-10-19,71.3,56.2,43.0,48.6,42.3,37.1,80,62,37,30.13,29.99,15,4,15,0.00
2013-10-20,72.4,57.1,42.5,47.8,42.3,35.8,81,60,37,30.00,29.81,15,4,15,0.00
2013-10-21,72.4,60.2,54.0,62.5,52.7,44.5,85,76,64,30.02,29.84,16,4,16,0.00
2013-10-22,79.2,61.5,43.9,49.3,44.9,38.4,82,59,30,30.08,29.94,13,2,13,0.00
2013-10-23,86.0,66.4,49.7,55.4,48.5,41.9,77,56,32,30.05,29.96,8,2,8,0.00
2013-10-24,82.6,68.5,57.8,54.8,49.2,42.9,58,51,38,30.20,30.09,12,5,12,0.00
2013-10-25,70.9,58.7,50.0,47.0,43.5,38.3,78,58,41,30.33,30.17,18,6,18,0.00
2013-10-26,73.8,61.1,51.7,62.0,52.3,43.3,88,73,66,30.17,29.96,19,5,19,1.34
2013-10-27,73.4,63.9,58.9,61.5,57.3,54.7,87,80,64,30.05,29.93,8,1,10,0.00
2013-10-28,78.5,66.2,56.9,67.7,60.1,51.7,90,81,69,30.04,29.94,12,4,12,0.00
2013-10-29,75.6,71.7,68.6,68.3,65.9,63.1,87,82,76,30.02,29.93,16,7,16,0.00
2013-10-30,71.8,67.8,64.3,66.4,63.5,60.4,91,86,80,29.96,29.73,22,8,22,0.42
2013-10-31,79.4,69.2,55.8,67.5,55.9,43.0,91,67,30,29.81,29.60,22,7,22,0.00
2013-11-1,80.3,63.1,48.8,55.2,47.9,42.1,79,60,37,29.99,29.75,13,3,13,0.00
2013-11-2,72.2,59.4,48.6,43.7,39.6,35.2,71,50,29,30.20,29.99,15,4,15,0.00
2013-11-3,68.0,55.2,42.3,44.2,39.9,34.0,74,58,39,30.13,29.92,14,4,14,0.00
2013-11-4,59.4,56.8,52.9,56.5,50.7,43.9,90,80,63,30.03,29.94,10,5,12,0.77
2013-11-5,68.4,63.6,59.4,65.3,60.6,56.5,91,90,89,30.00,29.86,13,5,13,0.55
2013-11-6,69.3,56.6,44.8,66.2,50.5,37.9,91,80,61,30.26,29.88,17,5,17,0.24
2013-11-7,69.7,53.7,39.6,46.4,41.5,34.6,84,66,41,30.40,30.26,9,1,9,0.00
2013-11-8,68.8,55.5,40.3,46.7,42.2,34.8,84,63,39,30.29,30.05,14,3,14,0.00
2013-11-9,67.0,57.9,53.8,50.0,46.7,44.3,75,67,53,30.15,30.04,11,5,11,0.00
2013-11-10,77.6,61.2,51.8,51.8,47.1,42.5,79,62,37,30.26,30.14,8,2,8,0.00
2013-11-11,83.2,62.3,47.0,56.4,48.5,40.8,82,63,38,30.19,30.08,8,1,8,0.00
2013-11-12,58.9,49.3,35.6,53.4,34.6,22.1,82,59,34,30.57,30.18,17,6,17,0.00
2013-11-13,62.6,43.1,29.7,31.9,25.3,20.7,71,51,30,30.58,30.28,12,2,12,0.00
2013-11-14,61.2,47.0,31.7,44.1,31.1,22.2,76,56,29,30.28,29.94,13,4,13,0.00
2013-11-15,71.6,59.7,52.6,56.9,50.1,43.8,83,71,56,29.95,29.77,13,5,13,0.00
2013-11-16,73.8,68.7,61.6,68.1,62.8,56.7,87,82,70,29.79,29.62,21,10,21,0.00
2013-11-17,91.6,76.9,63.0,69.4,59.8,39.9,85,59,34,29.92,29.62,17,7,17,0.00
2013-11-18,73.3,62.2,53.1,40.8,35.7,31.1,50,38,24,30.09,29.92,12,5,12,0.00
2013-11-19,71.8,59.9,52.9,41.0,35.5,31.1,54,41,24,30.10,29.94,19,7,19,0.00
2013-11-20,65.5,56.8,45.0,49.1,40.0,31.3,63,54,41,29.96,29.83,14,6,14,0.00
2013-11-21,71.6,64.9,47.3,66.3,58.7,42.3,88,81,62,30.09,29.87,20,6,20,0.20
2013-11-22,47.2,37.7,35.5,42.6,34.2,32.0,89,87,84,30.32,30.07,16,7,16,0.14
2013-11-23,42.7,38.7,36.0,37.9,33.7,27.7,89,82,67,30.42,30.30,13,6,13,0.03
2013-11-24,36.9,34.3,31.5,27.7,25.7,23.4,77,71,60,30.48,30.25,12,5,13,0.03
2013-11-25,37.6,35.6,33.1,34.0,31.4,27.1,89,85,73,30.25,30.04,10,4,10,0.53
2013-11-26,54.4,41.9,35.6,38.2,31.9,24.5,87,69,46,30.25,30.00,17,7,17,0.00
2013-11-27,52.4,38.8,29.0,26.7,22.2,17.6,67,53,33,30.36,30.23,11,3,11,0.00
2013-11-28,55.8,39.9,28.8,32.0,25.3,19.5,74,57,38,30.35,30.25,10,2,10,0.00
2013-11-29,61.4,45.5,31.3,41.3,31.8,22.7,77,60,38,30.42,30.25,10,2,10,0.00
2013-11-30,67.0,52.9,41.4,51.4,41.0,31.5,81,65,42,30.26,30.06,16,6,16,0.01
2013-12-1,68.0,59.3,51.3,56.7,52.8,45.6,86,79,65,30.07,29.80,15,6,16,0.00
2013-12-2,76.3,57.5,43.7,56.1,47.8,38.3,86,72,45,29.80,29.58,8,2,8,0.00
2013-12-3,72.0,63.3,54.9,47.3,41.7,36.5,66,47,29,29.52,29.44,12,4,12,0.00
2013-12-4,79.9,61.7,45.5,59.8,53.1,33.7,87,74,47,29.78,29.50,15,7,15,0.00
2013-12-5,45.5,33.1,27.9,34.1,24.9,21.1,86,72,60,30.06,29.76,16,7,16,0.00
2013-12-6,30.8,27.5,25.6,27.4,22.9,20.2,87,83,80,30.38,29.97,9,0,9,0.00
2013-12-7,28.3,26.7,24.1,24.8,22.9,19.4,87,85,82,30.42,30.18,0,0,0,0.00
2013-12-8,35.3,32.9,28.1,31.9,29.2,24.4,88,86,85,30.12,29.95,5,0,5,0.04
2013-12-9,34.6,32.4,29.2,30.7,28.4,23.1,88,85,77,30.29,30.04,12,5,12,0.03
2013-12-10,48.6,31.9,22.1,32.7,23.0,17.2,81,70,52,30.41,30.25,10,4,10,0.26
2013-12-11,49.2,35.3,25.8,36.7,27.4,21.1,84,74,56,30.48,30.22,7,2,7,0.01
2013-12-12,59.8,40.5,26.7,36.4,27.6,21.3,80,62,38,30.51,30.23,7,2,7,0.00
2013-12-13,44.4,41.7,39.5,41.9,37.4,28.0,91,85,60,30.21,29.72,11,6,11,0.15
2013-12-14,45.1,40.6,31.9,42.7,35.8,25.8,92,83,71,30.22,29.70,17,6,17,0.00
2013-12-15,65.1,44.1,28.3,38.1,31.0,22.6,80,63,33,30.25,30.13,9,3,9,0.01
2013-12-16,66.7,50.0,36.3,39.2,34.2,29.5,77,57,34,30.16,30.05,12,5,12,0.00
2013-12-17,79.5,56.2,38.6,48.2,37.9,30.8,75,53,28,30.19,30.10,7,2,7,0.00
2013-12-18,69.0,52.8,37.3,45.5,38.1,27.6,79,59,37,30.16,29.91,19,5,19,0.00
2013-12-19,71.4,61.1,51.2,60.4,53.5,45.3,86,76,63,29.91,29.66,23,10,23,0.00
2013-12-20,68.1,57.6,36.3,62.5,52.4,33.0,89,83,72,29.77,29.65,16,6,16,0.00
2013-12-21,53.9,43.5,35.4,51.1,40.6,31.9,92,89,87,29.68,29.43,14,3,15,1.58
2013-12-22,48.7,37.6,29.2,45.9,31.5,23.5,90,79,62,30.28,29.67,15,6,15,0.01
2013-12-23,55.2,37.4,25.3,35.9,27.2,20.8,84,68,45,30.44,30.26,10,2,10,0.00
2013-12-24,53.4,38.3,24.6,34.2,27.5,19.9,83,66,45,30.43,30.17,13,4,13,0.00
2013-12-25,61.3,43.9,33.0,43.9,33.7,26.2,79,68,51,30.29,30.17,11,3,11,0.00
2013-12-26,63.1,44.7,30.3,42.9,33.4,25.5,83,66,45,30.34,30.22,6,2,6,0.01
2013-12-27,67.6,47.6,32.8,42.5,34.5,26.1,81,62,37,30.34,30.22,7,1,7,0.00
2013-12-28,62.7,48.5,37.2,41.7,35.9,30.7,79,63,43,30.22,29.88,12,3,12,0.00
2013-12-29,53.4,41.5,31.4,42.3,31.2,22.5,74,67,60,30.16,29.84,16,5,16,0.00
2013-12-30,49.2,36.7,28.2,27.0,22.4,18.7,68,57,40,30.30,30.13,10,4,10,0.00
2013-12-31,56.6,41.2,25.5,30.6,24.1,17.1,72,52,33,30.33,30.11,10,3,10,0.00
2014-1-1,65.1,46.9,33.2,48.3,35.7,25.5,82,66,50,30.21,29.77,21,9,21,0.00
2014-1-2,47.1,34.2,23.6,26.1,18.9,15.9,73,55,36,30.51,30.21,22,6,22,0.00